Time;durP1;ratioP1;P1;durP2;ratioP2;P2;SDS_P1;SDS_P2;PMS_P1;PMS_P2;Temp;Humidity;BMP_temperature;BMP_pressure;BME280_temperature;BME280_humidity;BME280_pressure;Samples;Min_cycle;Max_cycle;Signal;HPM_P1;HPM_P2
2022/06/02 00:00:14;;;;;;;5.80;5.20;;;22.10;87.20;;;;;;6181171;28;89305;-63
2022/06/02 00:03:26;;;;;;;5.82;5.25;;;22.10;87.80;;;;;;6181803;28;89103;-63
2022/06/02 00:06:42;;;;;;;5.68;5.07;;;22.10;87.50;;;;;;6180910;28;89707;-63
2022/06/02 00:10:02;;;;;;;5.30;4.80;;;22.00;87.30;;;;;;6180815;28;89367;-63
2022/06/02 00:13:26;;;;;;;6.68;5.20;;;22.10;87.20;;;;;;6171368;28;89380;-63
2022/06/02 00:16:34;;;;;;;5.95;5.35;;;22.10;87.10;;;;;;6170484;28;89467;-62
2022/06/02 00:19:44;;;;;;;6.25;5.65;;;22.10;87.00;;;;;;6181354;28;89230;-63
2022/06/02 00:23:01;;;;;;;6.18;5.57;;;22.10;86.90;;;;;;6181733;28;88972;-63
2022/06/02 00:26:13;;;;;;;6.00;5.40;;;22.10;86.90;;;;;;6180316;28;88013;-63
2022/06/02 00:29:26;;;;;;;7.38;5.90;;;22.10;86.90;;;;;;6181095;28;88268;-63
2022/06/02 00:32:40;;;;;;;7.25;5.70;;;22.10;86.80;;;;;;6181540;28;88989;-63
2022/06/02 00:35:46;;;;;;;7.63;6.05;;;22.10;86.90;;;;;;6182731;28;89221;-63
2022/06/02 00:38:48;;;;;;;7.55;6.18;;;22.10;86.70;;;;;;6172473;28;90089;-63
2022/06/02 00:41:59;;;;;;;7.05;6.20;;;22.10;86.80;;;;;;6181637;28;87962;-63
2022/06/02 00:45:06;;;;;;;8.18;6.53;;;22.10;86.80;;;;;;6180630;28;89349;-63
2022/06/02 00:48:15;;;;;;;7.47;6.25;;;22.10;86.70;;;;;;6181472;28;87922;-63
2022/06/02 00:51:30;;;;;;;7.20;6.45;;;22.10;86.70;;;;;;6179810;28;89576;-63
2022/06/02 00:58:20;;;;;;;7.13;6.40;;;22.10;86.70;;;;;;6175544;28;87289;-63
2022/06/02 01:01:27;;;;;;;7.80;7.00;;;22.10;86.70;;;;;;6180715;28;86975;-63
2022/06/02 01:04:29;;;;;;;9.30;7.35;;;22.10;86.70;;;;;;6178796;28;88236;-63
2022/06/02 01:07:40;;;;;;;7.38;6.65;;;22.10;86.70;;;;;;6181906;28;89059;-63
2022/06/02 01:10:53;;;;;;;7.78;6.75;;;22.10;86.70;;;;;;6180528;28;90008;-63
2022/06/02 01:14:11;;;;;;;7.57;6.80;;;22.10;86.60;;;;;;6180502;28;89373;-63
2022/06/02 01:17:23;;;;;;;7.63;6.82;;;22.00;86.60;;;;;;6179053;28;89081;-63
2022/06/02 01:20:37;;;;;;;7.93;7.10;;;22.10;86.60;;;;;;6181817;28;89095;-64
2022/06/02 01:24:06;;;;;;;7.53;6.80;;;22.10;86.70;;;;;;6169940;28;89139;-63
2022/06/02 01:27:33;;;;;;;8.45;7.57;;;22.10;86.60;;;;;;6170595;28;89202;-63
2022/06/02 01:30:51;;;;;;;8.60;7.68;;;22.00;86.60;;;;;;6150856;28;89040;-63
2022/06/02 01:34:02;;;;;;;7.68;6.97;;;22.00;86.60;;;;;;6181530;28;88502;-63
2022/06/02 01:37:12;;;;;;;8.43;7.63;;;22.00;86.60;;;;;;6171791;28;89359;-63
2022/06/02 01:40:25;;;;;;;8.13;7.32;;;22.00;86.60;;;;;;6185481;28;93532;-63
2022/06/02 01:43:41;;;;;;;8.50;7.70;;;22.00;86.60;;;;;;6185079;28;90136;-63
2022/06/02 01:46:48;;;;;;;8.15;7.35;;;22.00;86.60;;;;;;6179439;28;89060;-63
2022/06/02 01:50:12;;;;;;;8.40;7.60;;;22.00;86.60;;;;;;6181709;28;89431;-63
2022/06/02 01:53:23;;;;;;;8.38;7.57;;;22.00;86.60;;;;;;6178341;28;89226;-63
2022/06/02 01:56:54;;;;;;;9.10;8.20;;;22.10;86.70;;;;;;6184289;28;88733;-63
2022/06/02 02:00:04;;;;;;;8.60;7.80;;;22.00;86.60;;;;;;6184782;28;88935;-63
2022/06/02 02:03:18;;;;;;;8.77;7.88;;;22.00;86.60;;;;;;6182080;28;89087;-63
2022/06/02 02:06:30;;;;;;;8.75;7.85;;;22.00;86.60;;;;;;6183337;28;88551;-63
2022/06/02 02:09:46;;;;;;;8.50;7.68;;;22.00;86.60;;;;;;6184723;28;89153;-63
2022/06/02 02:12:58;;;;;;;9.75;8.05;;;22.00;86.50;;;;;;6185198;28;89240;-63
2022/06/02 02:16:18;;;;;;;8.57;7.68;;;22.00;86.60;;;;;;6175773;28;90157;-63
2022/06/02 02:19:28;;;;;;;8.93;8.10;;;22.10;86.70;;;;;;6183196;28;91038;-63
2022/06/02 02:22:41;;;;;;;9.25;8.25;;;22.00;86.50;;;;;;6182995;28;89095;-63
2022/06/02 02:25:47;;;;;;;9.13;8.27;;;22.00;86.60;;;;;;6184342;28;89061;-63
2022/06/02 02:28:58;;;;;;;9.02;8.13;;;22.00;86.60;;;;;;6182468;28;89023;-63
2022/06/02 02:32:08;;;;;;;9.27;8.27;;;22.00;86.50;;;;;;6184467;28;89347;-64
2022/06/02 02:35:15;;;;;;;8.63;7.82;;;22.00;86.40;;;;;;6183833;28;89589;-63
2022/06/02 02:38:25;;;;;;;9.05;8.15;;;22.00;86.50;;;;;;6181283;28;88495;-63
2022/06/02 02:41:35;;;;;;;8.98;8.13;;;22.10;86.60;;;;;;6183393;28;89083;-63
2022/06/02 02:44:43;;;;;;;9.13;8.23;;;22.10;86.60;;;;;;6182443;28;90677;-64
2022/06/02 02:47:52;;;;;;;9.07;8.18;;;22.00;86.40;;;;;;6182959;28;90001;-63
2022/06/02 02:51:03;;;;;;;8.80;7.90;;;22.00;86.60;;;;;;6182832;28;90259;-63
2022/06/02 02:54:11;;;;;;;9.30;8.30;;;22.10;86.60;;;;;;6172791;28;89489;-63
2022/06/02 02:57:18;;;;;;;8.70;7.90;;;22.00;86.50;;;;;;6184079;28;87972;-63
2022/06/02 03:00:23;;;;;;;8.65;7.85;;;22.00;86.50;;;;;;6182756;28;89123;-63
2022/06/02 03:03:29;;;;;;;8.73;7.85;;;22.00;87.30;;;;;;6181828;28;89178;-63
2022/06/02 03:06:36;;;;;;;8.73;7.93;;;22.00;86.50;;;;;;6182733;28;88981;-63
2022/06/02 03:09:44;;;;;;;8.60;7.80;;;22.10;86.60;;;;;;6182784;28;88282;-63
2022/06/02 03:13:05;;;;;;;9.05;7.78;;;22.10;86.50;;;;;;6183068;28;89203;-63
2022/06/02 03:16:09;;;;;;;8.50;7.60;;;22.10;86.60;;;;;;6181370;28;88375;-63
2022/06/02 03:19:22;;;;;;;8.25;7.45;;;22.00;86.50;;;;;;6182472;28;89989;-63
2022/06/02 03:22:45;;;;;;;8.30;7.50;;;22.00;86.40;;;;;;6182490;28;89080;-63
2022/06/02 03:25:51;;;;;;;8.90;7.70;;;22.00;86.50;;;;;;6182288;28;88288;-66
2022/06/02 03:29:02;;;;;;;8.32;7.57;;;22.00;86.50;;;;;;6182735;28;88012;-66
2022/06/02 03:32:13;;;;;;;8.50;7.70;;;22.00;86.50;;;;;;6182243;28;90080;-66
2022/06/02 03:35:25;;;;;;;8.70;7.90;;;22.00;86.40;;;;;;6182690;28;89666;-63
2022/06/02 03:38:51;;;;;;;8.75;7.85;;;22.00;86.50;;;;;;6174340;28;89107;-63
2022/06/02 03:42:13;;;;;;;8.63;7.78;;;22.00;86.50;;;;;;6176830;28;88631;-63
2022/06/02 03:45:32;;;;;;;8.18;7.38;;;22.00;86.60;;;;;;6182126;28;89077;-63
2022/06/02 03:49:01;;;;;;;8.02;7.25;;;22.00;86.50;;;;;;6182336;28;89389;-63
2022/06/02 03:52:15;;;;;;;8.50;7.65;;;22.00;86.50;;;;;;6181143;28;90399;-63
2022/06/02 03:55:33;;;;;;;8.20;7.40;;;22.00;86.60;;;;;;6182015;28;89475;-63
2022/06/02 03:58:57;;;;;;;8.73;7.93;;;22.00;86.60;;;;;;6181915;28;88195;-63
2022/06/02 04:02:02;;;;;;;7.85;7.15;;;22.00;86.60;;;;;;6182442;28;89507;-63
2022/06/02 04:05:23;;;;;;;8.38;7.57;;;22.00;86.50;;;;;;6181275;28;89070;-63
2022/06/02 04:08:49;;;;;;;7.90;7.20;;;22.00;86.50;;;;;;6181327;28;89126;-63
2022/06/02 04:15:54;;;;;;;7.65;6.85;;;22.00;87.40;;;;;;6179353;28;88797;-63
2022/06/02 04:22:44;;;;;;;7.72;6.78;;;22.00;86.50;;;;;;6181045;28;88784;-63
2022/06/02 04:25:53;;;;;;;7.65;6.95;;;22.00;86.40;;;;;;6179663;28;90077;-63
2022/06/02 04:29:08;;;;;;;7.70;6.90;;;22.00;86.50;;;;;;6181321;28;87993;-63
2022/06/02 04:32:21;;;;;;;7.75;6.97;;;22.00;86.60;;;;;;6181535;28;89160;-63
2022/06/02 04:35:40;;;;;;;7.68;6.97;;;22.00;86.60;;;;;;6181161;28;89184;-63
2022/06/02 04:38:52;;;;;;;7.68;6.97;;;22.00;86.50;;;;;;6180744;28;89164;-63
2022/06/02 04:42:02;;;;;;;7.32;6.63;;;22.00;86.50;;;;;;6181206;28;87989;-63
2022/06/02 04:45:13;;;;;;;7.00;6.30;;;22.00;86.50;;;;;;6180453;28;89370;-63
2022/06/02 04:48:24;;;;;;;6.47;5.78;;;22.00;86.70;;;;;;6181874;28;88697;-63
2022/06/02 04:51:35;;;;;;;7.63;5.97;;;22.10;87.20;;;;;;6179637;28;89365;-63
2022/06/02 04:54:42;;;;;;;6.35;5.72;;;22.00;87.90;;;;;;6179234;28;89265;-63
2022/06/02 04:57:54;;;;;;;6.28;5.68;;;22.10;88.40;;;;;;6179949;28;90295;-62
2022/06/02 05:01:04;;;;;;;6.97;5.80;;;22.10;88.80;;;;;;6180924;28;89095;-62
2022/06/02 05:04:25;;;;;;;7.05;5.22;;;22.10;89.50;;;;;;6180904;28;89061;-62
2022/06/02 05:07:39;;;;;;;5.88;5.28;;;22.10;89.60;;;;;;6180037;28;89226;-63
2022/06/02 05:10:50;;;;;;;7.53;5.40;;;22.10;89.80;;;;;;6179786;28;89489;-63
2022/06/02 05:14:01;;;;;;;6.82;5.60;;;22.10;90.00;;;;;;6185196;28;89094;-63
2022/06/02 05:17:21;;;;;;;7.95;4.93;;;22.00;90.00;;;;;;6177290;28;89091;-63
2022/06/02 05:20:39;;;;;;;6.88;4.97;;;22.00;90.00;;;;;;6184467;28;88856;-63
2022/06/02 05:24:00;;;;;;;7.85;5.65;;;22.00;90.10;;;;;;6179122;28;89116;-63
2022/06/02 05:27:32;;;;;;;5.53;4.97;;;22.10;90.20;;;;;;6185991;28;89067;-63
2022/06/02 05:31:04;;;;;;;5.38;4.88;;;22.10;90.20;;;;;;6151629;28;90029;-63
2022/06/02 05:34:29;;;;;;;5.78;5.13;;;22.10;90.20;;;;;;6172929;28;89362;-63
2022/06/02 05:37:50;;;;;;;5.72;4.90;;;22.00;90.30;;;;;;6179384;28;89167;-63
2022/06/02 05:41:01;;;;;;;5.78;5.00;;;22.00;90.30;;;;;;6179661;28;88105;-63
2022/06/02 05:44:12;;;;;;;5.45;4.95;;;22.10;90.40;;;;;;6180247;28;87973;-63
2022/06/02 05:47:35;;;;;;;5.35;4.60;;;22.10;90.30;;;;;;6179777;28;89461;-63
2022/06/02 05:50:47;;;;;;;4.90;4.40;;;22.10;90.40;;;;;;6179172;28;89043;-63
2022/06/02 05:54:02;;;;;;;5.50;4.60;;;22.10;90.50;;;;;;6180660;28;88776;-63
2022/06/02 05:57:18;;;;;;;5.00;4.45;;;22.10;90.60;;;;;;6179433;28;88934;-63
2022/06/02 06:00:30;;;;;;;5.22;4.72;;;22.10;90.60;;;;;;6179050;28;88146;-63
2022/06/02 06:04:00;;;;;;;5.15;4.65;;;22.10;90.60;;;;;;6178181;28;89995;-63
2022/06/02 06:07:14;;;;;;;5.70;4.90;;;22.10;90.60;;;;;;6180324;28;88812;-63
2022/06/02 06:10:24;;;;;;;5.13;4.65;;;22.10;90.40;;;;;;6179472;28;89079;-63
2022/06/02 06:13:54;;;;;;;5.20;4.70;;;22.10;90.20;;;;;;6180168;28;89064;-63
2022/06/02 06:17:06;;;;;;;5.40;4.22;;;22.10;90.00;;;;;;6176706;28;89330;-66
2022/06/02 06:20:33;;;;;;;4.63;4.22;;;22.20;90.10;;;;;;6179346;28;89128;-63
2022/06/02 06:23:58;;;;;;;6.10;4.78;;;22.20;90.00;;;;;;6178391;28;89089;-63
2022/06/02 06:27:08;;;;;;;5.63;4.40;;;22.20;90.00;;;;;;6183181;28;88423;-63
2022/06/02 06:30:24;;;;;;;6.35;4.05;;;22.20;90.00;;;;;;6181797;28;89214;-63
2022/06/02 06:33:46;;;;;;;4.93;4.43;;;22.20;90.00;;;;;;6182728;28;89143;-63
2022/06/02 06:37:16;;;;;;;5.03;4.53;;;22.20;90.00;;;;;;6183431;28;90918;-63
2022/06/02 06:40:46;;;;;;;4.78;4.38;;;22.20;89.70;;;;;;6182346;28;88054;-63
2022/06/02 06:44:09;;;;;;;4.30;3.90;;;22.30;89.60;;;;;;6182867;28;88930;-63
2022/06/02 06:47:16;;;;;;;5.57;4.10;;;22.20;89.40;;;;;;6182945;28;89170;-63
2022/06/02 06:50:21;;;;;;;4.38;3.97;;;22.30;89.60;;;;;;6183125;28;88968;-63
2022/06/02 06:53:32;;;;;;;5.13;4.13;;;22.30;89.40;;;;;;6181650;28;88997;-63
2022/06/02 06:56:53;;;;;;;4.00;3.70;;;22.30;89.30;;;;;;6182808;28;89063;-63
2022/06/02 07:00:02;;;;;;;4.13;3.63;;;22.30;89.50;;;;;;6174430;28;88329;-63
2022/06/02 07:03:14;;;;;;;4.47;3.90;;;22.20;89.80;;;;;;6182554;28;89083;-63
2022/06/02 07:06:27;;;;;;;4.05;3.58;;;22.30;89.40;;;;;;6175887;28;89054;-63
2022/06/02 07:09:36;;;;;;;4.70;4.20;;;22.30;90.00;;;;;;6174672;28;89084;-63
2022/06/02 07:12:53;;;;;;;4.13;3.53;;;22.30;90.10;;;;;;6183299;28;89097;-63
2022/06/02 07:16:01;;;;;;;3.92;3.47;;;22.30;90.20;;;;;;6184369;28;89382;-63
2022/06/02 07:19:12;;;;;;;4.05;3.67;;;22.30;90.20;;;;;;6172998;28;89125;-63
2022/06/02 07:22:25;;;;;;;3.83;3.45;;;22.30;90.00;;;;;;6182121;28;89074;-63
2022/06/02 07:25:31;;;;;;;4.05;3.60;;;22.30;89.50;;;;;;6183675;28;89108;-63
2022/06/02 07:28:51;;;;;;;4.07;3.70;;;22.30;89.40;;;;;;6181584;28;89453;-63
2022/06/02 07:32:33;;;;;;;3.95;3.65;;;22.30;89.40;;;;;;6181661;28;89263;-63
2022/06/02 07:36:09;;;;;;;4.90;3.65;;;22.30;89.60;;;;;;6181690;28;89030;-62
2022/06/02 07:39:41;;;;;;;4.00;3.65;;;22.30;89.30;;;;;;6181012;28;89068;-63
2022/06/02 07:43:16;;;;;;;3.85;3.53;;;22.30;89.00;;;;;;6136954;28;90035;-63
2022/06/02 07:46:36;;;;;;;4.22;3.80;;;22.30;88.90;;;;;;6173164;28;88819;-63
2022/06/02 07:49:54;;;;;;;4.18;3.20;;;22.30;88.80;;;;;;6181155;28;89425;-63
2022/06/02 07:53:06;;;;;;;3.88;3.28;;;22.30;89.60;;;;;;6181189;28;89571;-63
2022/06/02 07:56:15;;;;;;;4.35;3.92;;;22.30;90.10;;;;;;6181653;28;89593;-63
2022/06/02 07:59:27;;;;;;;4.57;3.20;;;22.30;89.80;;;;;;6181792;28;88085;-63
2022/06/02 08:02:43;;;;;;;5.05;3.30;;;22.30;89.80;;;;;;6182844;28;89751;-63
2022/06/02 08:05:51;;;;;;;3.90;3.50;;;22.30;90.10;;;;;;6182747;28;88572;-63
2022/06/02 08:09:19;;;;;;;3.60;3.30;;;22.30;90.00;;;;;;6182622;28;89007;-63
2022/06/02 08:12:27;;;;;;;3.90;3.60;;;22.30;90.10;;;;;;6182041;28;89095;-63
2022/06/02 08:15:40;;;;;;;3.92;3.63;;;22.30;89.80;;;;;;6182009;28;90033;-63
2022/06/02 08:19:03;;;;;;;3.97;3.50;;;22.30;89.60;;;;;;6181413;28;89158;-63
2022/06/02 08:22:09;;;;;;;4.43;3.88;;;22.30;89.60;;;;;;6179905;28;89160;-63
2022/06/02 08:25:13;;;;;;;4.00;3.60;;;22.30;89.50;;;;;;6180075;28;88301;-63
2022/06/02 08:28:42;;;;;;;3.10;2.85;;;22.30;89.50;;;;;;6180657;28;89869;-63
2022/06/02 08:32:00;;;;;;;2.90;2.70;;;22.30;89.80;;;;;;6177691;28;89052;-63
2022/06/02 08:35:11;;;;;;;3.10;2.90;;;22.30;90.20;;;;;;6180404;28;89099;-63
2022/06/02 08:38:28;;;;;;;3.33;3.03;;;22.30;90.20;;;;;;6180588;28;88470;-63
2022/06/02 08:42:22;;;;;;;3.17;2.88;;;22.40;90.10;;;;;;6181263;28;87964;-63
2022/06/02 08:46:00;;;;;;;3.38;3.08;;;22.30;90.10;;;;;;6179914;28;89428;-63
2022/06/02 08:49:33;;;;;;;3.67;3.38;;;22.40;90.00;;;;;;6179058;28;90040;-62
2022/06/02 08:53:07;;;;;;;4.35;3.30;;;22.40;89.90;;;;;;6146175;28;90665;-63
2022/06/02 08:56:42;;;;;;;3.33;3.03;;;22.40;89.90;;;;;;6180342;28;89394;-63
2022/06/02 09:00:24;;;;;;;3.40;3.08;;;22.40;90.00;;;;;;6180546;28;89431;-63
2022/06/02 09:03:56;;;;;;;3.50;3.20;;;22.40;90.00;;;;;;6170395;28;89048;-63
2022/06/02 09:07:18;;;;;;;3.88;2.92;;;22.30;90.00;;;;;;6180916;28;89114;-63
2022/06/02 09:10:43;;;;;;;3.22;2.92;;;22.40;89.90;;;;;;6180340;28;89061;-63
2022/06/02 09:14:30;;;;;;;3.45;3.15;;;22.30;89.60;;;;;;6178784;28;89328;-63
2022/06/02 09:17:46;;;;;;;3.40;3.10;;;22.40;89.50;;;;;;6116205;28;89091;-63
2022/06/02 09:20:55;;;;;;;3.70;3.40;;;22.40;90.10;;;;;;6181441;28;88984;-66
2022/06/02 09:24:06;;;;;;;3.00;2.72;;;22.40;89.30;;;;;;6181072;28;89650;-65
2022/06/02 09:27:47;;;;;;;3.42;3.13;;;22.40;89.30;;;;;;6180517;28;89134;-65
2022/06/02 09:31:04;;;;;;;3.38;3.08;;;22.40;89.60;;;;;;6113624;28;89120;-63
2022/06/02 09:34:34;;;;;;;3.40;3.10;;;22.40;89.30;;;;;;6180220;28;89189;-63
2022/06/02 09:38:13;;;;;;;3.42;3.13;;;22.40;89.80;;;;;;6179914;28;89036;-62
2022/06/02 09:41:46;;;;;;;3.30;3.00;;;22.40;89.80;;;;;;6179460;28;87967;-63
2022/06/02 09:44:57;;;;;;;3.40;3.10;;;22.40;89.70;;;;;;6170929;28;89100;-63
2022/06/02 09:48:14;;;;;;;3.10;2.80;;;22.30;89.30;;;;;;6170809;28;87299;-63
2022/06/02 09:51:50;;;;;;;3.70;3.00;;;22.40;89.30;;;;;;6180086;28;89079;-63
2022/06/02 09:55:12;;;;;;;3.22;2.92;;;22.30;89.60;;;;;;6178249;28;89125;-63
2022/06/02 09:58:34;;;;;;;3.03;2.80;;;22.30;89.30;;;;;;6182418;28;90232;-63
2022/06/02 10:01:45;;;;;;;3.20;2.90;;;22.30;89.20;;;;;;6185050;28;89405;-62
2022/06/02 10:05:12;;;;;;;3.08;2.78;;;22.30;89.10;;;;;;6183394;28;88013;-63
2022/06/02 10:08:23;;;;;;;3.05;2.83;;;22.30;89.10;;;;;;6183933;28;89163;-63
2022/06/02 10:11:34;;;;;;;3.42;3.13;;;22.30;89.30;;;;;;6183414;28;89304;-63
2022/06/02 10:15:00;;;;;;;3.05;2.78;;;22.40;89.40;;;;;;6183115;28;89092;-63
2022/06/02 10:18:13;;;;;;;5.28;2.90;;;22.30;89.30;;;;;;6183438;28;88712;-63
2022/06/02 10:21:31;;;;;;;3.10;2.78;;;22.30;89.40;;;;;;6182980;28;88681;-63
2022/06/02 10:25:08;;;;;;;3.00;2.80;;;22.30;89.40;;;;;;6183968;28;89719;-63
2022/06/02 10:28:35;;;;;;;3.13;2.83;;;22.40;89.30;;;;;;6183245;28;89093;-63
2022/06/02 10:32:22;;;;;;;3.10;2.85;;;22.40;89.10;;;;;;6182057;28;89046;-63
2022/06/02 10:36:03;;;;;;;2.92;2.72;;;22.40;89.10;;;;;;6159631;28;89402;-63
2022/06/02 10:39:26;;;;;;;3.00;2.65;;;22.30;88.90;;;;;;6183789;28;89004;-63
2022/06/02 10:42:49;;;;;;;3.08;2.70;;;22.40;89.10;;;;;;6182731;28;89013;-63
2022/06/02 10:46:24;;;;;;;2.65;2.45;;;22.40;89.30;;;;;;6182440;28;89427;-63
2022/06/02 10:49:34;;;;;;;2.85;2.65;;;22.40;89.30;;;;;;6181862;28;87980;-62
2022/06/02 10:53:10;;;;;;;2.88;2.58;;;22.40;89.20;;;;;;6183007;28;90220;-63
2022/06/02 10:56:37;;;;;;;3.33;2.78;;;22.40;89.00;;;;;;6140100;28;89173;-63
2022/06/02 11:00:10;;;;;;;2.90;2.60;;;22.40;88.90;;;;;;6175050;28;89068;-63
2022/06/02 11:04:03;;;;;;;3.20;2.90;;;22.40;88.80;;;;;;6180258;28;89075;-63
2022/06/02 11:07:40;;;;;;;2.70;2.50;;;22.40;88.80;;;;;;6177943;28;90143;-63
2022/06/02 11:11:01;;;;;;;2.70;2.50;;;22.40;88.60;;;;;;6179996;28;89026;-63
2022/06/02 11:14:36;;;;;;;2.80;2.60;;;22.40;88.90;;;;;;6180993;28;89037;-63
2022/06/02 11:18:10;;;;;;;2.80;2.60;;;22.40;89.40;;;;;;6178128;28;89214;-62
2022/06/02 11:21:50;;;;;;;3.33;2.72;;;22.40;89.40;;;;;;6182749;28;89095;-63
2022/06/02 11:25:45;;;;;;;2.78;2.58;;;22.40;89.40;;;;;;6141519;28;88311;-63
2022/06/02 11:28:59;;;;;;;2.75;2.55;;;22.40;89.60;;;;;;6177179;28;89127;-63
2022/06/02 11:32:13;;;;;;;2.80;2.60;;;22.40;89.60;;;;;;6182615;28;88679;-63
2022/06/02 11:35:40;;;;;;;2.40;2.20;;;22.50;89.90;;;;;;6182044;28;90371;-65
2022/06/02 11:39:24;;;;;;;2.83;2.50;;;22.40;89.60;;;;;;6179473;28;88815;-65
2022/06/02 11:42:45;;;;;;;3.20;2.90;;;22.40;89.80;;;;;;6182716;28;89961;-63
2022/06/02 11:46:28;;;;;;;3.03;2.72;;;22.40;89.60;;;;;;6175261;28;89061;-63
2022/06/02 11:49:54;;;;;;;2.60;2.40;;;22.50;90.00;;;;;;6169577;28;89122;-63
2022/06/02 11:53:19;;;;;;;2.78;2.58;;;22.50;90.00;;;;;;6180539;28;89500;-63
2022/06/02 11:56:39;;;;;;;3.20;2.60;;;22.50;89.80;;;;;;6182530;28;89503;-63
2022/06/02 12:00:19;;;;;;;3.20;2.90;;;22.50;89.60;;;;;;6183102;28;89400;-63
2022/06/02 12:03:51;;;;;;;2.90;2.70;;;22.40;89.40;;;;;;6181121;28;88994;-63
2022/06/02 12:07:31;;;;;;;2.83;2.60;;;22.40;89.20;;;;;;6166680;28;87449;-63
2022/06/02 12:11:10;;;;;;;3.65;3.20;;;22.40;88.90;;;;;;6179253;28;88949;-63
2022/06/02 12:14:35;;;;;;;2.90;2.70;;;22.40;88.90;;;;;;6181195;28;89313;-65
2022/06/02 12:18:01;;;;;;;2.95;2.45;;;22.40;89.10;;;;;;6179410;28;88033;-62
2022/06/02 12:21:28;;;;;;;3.30;2.70;;;22.40;89.20;;;;;;6180228;28;89221;-63
2022/06/02 12:24:58;;;;;;;3.95;3.10;;;22.40;89.10;;;;;;6181453;28;89122;-63
2022/06/02 12:28:24;;;;;;;2.92;2.65;;;22.40;89.10;;;;;;6181000;28;90799;-62
2022/06/02 12:31:57;;;;;;;3.00;2.65;;;22.40;89.60;;;;;;6181322;28;89093;-63
2022/06/02 12:35:31;;;;;;;2.80;2.60;;;22.50;89.70;;;;;;6181604;28;89051;-63
2022/06/02 12:39:12;;;;;;;2.60;2.40;;;22.50;89.60;;;;;;6181197;28;89059;-63
2022/06/02 12:42:44;;;;;;;3.47;2.80;;;22.40;89.40;;;;;;6170043;28;88370;-63
2022/06/02 12:45:49;;;;;;;2.88;2.60;;;22.40;89.30;;;;;;6173939;28;88015;-63
2022/06/02 12:49:36;;;;;;;2.90;2.70;;;22.40;89.50;;;;;;6181302;28;88284;-63
2022/06/02 12:53:27;;;;;;;3.40;2.55;;;22.50;89.60;;;;;;6175595;28;89980;-64
2022/06/02 12:56:49;;;;;;;2.78;2.55;;;22.40;89.40;;;;;;6180520;28;89086;-64
2022/06/02 13:00:17;;;;;;;2.67;2.47;;;22.50;89.20;;;;;;6181017;28;89204;-64
2022/06/02 13:03:50;;;;;;;2.90;2.70;;;22.50;89.40;;;;;;6181627;28;89198;-63
2022/06/02 13:07:36;;;;;;;2.80;2.50;;;22.50;89.40;;;;;;6181465;28;89352;-64
2022/06/02 13:10:53;;;;;;;3.05;2.70;;;22.50;89.10;;;;;;6180508;28;89187;-63
2022/06/02 13:14:33;;;;;;;2.95;2.75;;;22.50;88.90;;;;;;6180935;28;89067;-64
2022/06/02 13:17:53;;;;;;;3.03;2.72;;;22.50;88.80;;;;;;6178534;28;87717;-63
2022/06/02 13:21:31;;;;;;;2.58;2.38;;;22.40;88.70;;;;;;6180538;28;89070;-64
2022/06/02 13:25:00;;;;;;;2.83;2.63;;;22.50;88.80;;;;;;6177378;28;88035;-64
2022/06/02 13:28:40;;;;;;;2.80;2.60;;;22.50;88.80;;;;;;6178606;28;90408;-63
2022/06/02 13:32:29;;;;;;;3.20;2.60;;;22.50;88.90;;;;;;6128046;28;89088;-64
2022/06/02 13:36:01;;;;;;;3.10;2.80;;;22.50;88.80;;;;;;6169657;28;89172;-63
2022/06/02 13:39:45;;;;;;;3.65;2.88;;;22.50;88.70;;;;;;6176994;28;89149;-63
2022/06/02 13:43:33;;;;;;;2.70;2.45;;;22.50;89.10;;;;;;6172514;28;89177;-63
2022/06/02 13:47:12;;;;;;;3.10;2.60;;;22.50;88.80;;;;;;6179355;28;89462;-63
2022/06/02 13:50:53;;;;;;;2.63;2.42;;;22.50;88.70;;;;;;6178710;28;88955;-64
2022/06/02 13:57:49;;;;;;;2.90;2.60;;;22.50;88.80;;;;;;6180295;28;88980;-64
2022/06/02 14:01:16;;;;;;;2.95;2.65;;;22.50;88.30;;;;;;6179671;28;89137;-64
2022/06/02 14:04:51;;;;;;;3.03;2.83;;;22.50;88.30;;;;;;6178460;28;88960;-64
2022/06/02 14:08:27;;;;;;;2.88;2.67;;;22.50;88.70;;;;;;6174473;28;89437;-64
2022/06/02 14:11:55;;;;;;;5.05;3.22;;;22.50;88.60;;;;;;6176418;28;89172;-64
2022/06/02 14:15:20;;;;;;;3.10;2.80;;;22.50;88.40;;;;;;6181060;28;89396;-64
2022/06/02 14:18:51;;;;;;;2.97;2.67;;;22.50;88.30;;;;;;6180003;28;89654;-64
2022/06/02 14:22:03;;;;;;;3.30;3.00;;;22.50;87.90;;;;;;6179852;28;92116;-64
2022/06/02 14:25:12;;;;;;;2.72;2.50;;;22.50;88.10;;;;;;6180267;28;91210;-65
2022/06/02 14:28:38;;;;;;;2.85;2.65;;;22.50;88.10;;;;;;6180012;28;88314;-64
2022/06/02 14:31:52;;;;;;;2.75;2.55;;;22.40;88.30;;;;;;6179786;28;88271;-64
2022/06/02 14:35:36;;;;;;;2.85;2.65;;;22.50;88.10;;;;;;6180777;28;92241;-65
2022/06/02 14:38:50;;;;;;;7.05;2.95;;;22.50;88.60;;;;;;6158136;28;89995;-64
2022/06/02 14:42:12;;;;;;;5.82;3.30;;;22.50;88.90;;;;;;6179755;28;89312;-64
2022/06/02 14:45:20;;;;;;;3.75;2.90;;;22.50;89.40;;;;;;6176674;28;89105;-64
2022/06/02 14:48:33;;;;;;;4.07;2.97;;;22.50;89.40;;;;;;6181720;28;89064;-64
2022/06/02 14:51:38;;;;;;;6.60;3.13;;;22.50;89.50;;;;;;6182415;28;88032;-64
2022/06/02 14:54:53;;;;;;;3.08;2.60;;;22.50;89.60;;;;;;6184194;28;89075;-64
2022/06/02 14:58:06;;;;;;;3.97;2.90;;;22.50;89.80;;;;;;6182634;28;89175;-65
2022/06/02 15:01:24;;;;;;;2.90;2.70;;;22.50;89.90;;;;;;6178734;28;87450;-66
2022/06/02 15:05:02;;;;;;;3.05;2.75;;;22.50;89.90;;;;;;6181755;28;89088;-64
2022/06/02 15:08:36;;;;;;;2.95;2.63;;;22.50;90.00;;;;;;6183706;28;89137;-65
2022/06/02 15:12:04;;;;;;;4.10;2.85;;;22.50;90.00;;;;;;6136443;28;90381;-64
2022/06/02 15:15:29;;;;;;;3.75;2.70;;;22.50;90.00;;;;;;6184080;28;89062;-64
2022/06/02 15:19:02;;;;;;;2.58;2.38;;;22.60;90.00;;;;;;6180523;28;89105;-64
2022/06/02 15:22:37;;;;;;;2.38;2.20;;;22.50;89.90;;;;;;6180787;28;88125;-64
2022/06/02 15:25:46;;;;;;;3.10;2.80;;;22.50;89.90;;;;;;6176531;28;91155;-65
2022/06/02 15:29:17;;;;;;;2.60;2.40;;;22.50;89.90;;;;;;6182661;28;89461;-64
2022/06/02 15:32:57;;;;;;;3.67;2.60;;;22.50;89.90;;;;;;6179619;28;89104;-64
2022/06/02 15:36:24;;;;;;;3.40;2.75;;;22.50;89.90;;;;;;6144181;28;88387;-64
2022/06/02 15:39:55;;;;;;;4.05;2.92;;;22.50;90.00;;;;;;6178262;28;88048;-64
2022/06/02 15:43:18;;;;;;;3.17;2.67;;;22.50;89.90;;;;;;6182233;28;89706;-64
2022/06/02 15:47:02;;;;;;;3.20;2.90;;;22.50;89.70;;;;;;6180753;28;89977;-64
2022/06/02 15:50:43;;;;;;;2.85;2.65;;;22.50;89.40;;;;;;6178647;28;87167;-64
2022/06/02 15:54:15;;;;;;;3.15;2.72;;;22.50;88.80;;;;;;6181512;28;89446;-64
2022/06/02 15:57:50;;;;;;;3.03;2.72;;;22.50;88.50;;;;;;6164684;28;89079;-64
2022/06/02 16:01:26;;;;;;;3.13;2.70;;;22.50;87.80;;;;;;6182672;28;88006;-64
2022/06/02 16:05:01;;;;;;;3.03;2.72;;;22.50;87.60;;;;;;6177566;28;89189;-64
2022/06/02 16:08:50;;;;;;;2.75;2.42;;;22.50;87.90;;;;;;6148103;28;89429;-64
2022/06/02 16:12:24;;;;;;;2.75;2.55;;;22.60;88.10;;;;;;6178806;28;88499;-65
2022/06/02 16:15:57;;;;;;;2.70;2.50;;;22.60;88.30;;;;;;6176619;28;87920;-65
2022/06/02 16:19:26;;;;;;;3.40;2.75;;;22.60;88.10;;;;;;6175699;28;89259;-64
2022/06/02 16:22:57;;;;;;;2.78;2.58;;;22.60;88.10;;;;;;6177530;28;90004;-65
2022/06/02 16:26:47;;;;;;;3.30;2.80;;;22.60;87.90;;;;;;6168249;28;88247;-65
2022/06/02 16:30:07;;;;;;;3.88;2.60;;;22.50;87.70;;;;;;6134410;28;90067;-64
2022/06/02 16:33:39;;;;;;;3.08;2.78;;;22.50;87.40;;;;;;6180471;28;87932;-65
2022/06/02 16:37:03;;;;;;;2.83;2.63;;;22.50;87.50;;;;;;6180837;28;89368;-64
2022/06/02 16:40:23;;;;;;;6.32;2.72;;;22.60;87.70;;;;;;6180018;28;89190;-64
2022/06/02 16:44:03;;;;;;;3.13;2.72;;;22.60;87.90;;;;;;6178270;28;89092;-64
2022/06/02 16:47:17;;;;;;;3.08;2.88;;;22.50;89.70;;;;;;6179146;28;88618;-65
2022/06/02 16:50:31;;;;;;;2.80;2.60;;;22.60;90.30;;;;;;6180702;28;89137;-64
2022/06/02 16:53:55;;;;;;;2.90;2.70;;;22.60;90.20;;;;;;6181204;28;87945;-64
2022/06/02 16:57:09;;;;;;;3.55;2.97;;;22.60;90.00;;;;;;6177918;28;89461;-64
2022/06/02 17:00:21;;;;;;;3.75;2.80;;;22.60;90.20;;;;;;6180398;28;91778;-65
2022/06/02 17:03:46;;;;;;;3.00;2.80;;;22.60;90.10;;;;;;6180354;28;87994;-65
2022/06/02 17:07:04;;;;;;;3.20;2.90;;;22.60;90.40;;;;;;6176954;28;89843;-65
2022/06/02 17:10:24;;;;;;;3.00;2.75;;;22.70;90.00;;;;;;6181622;28;90590;-65
2022/06/02 17:13:33;;;;;;;2.92;2.72;;;22.70;90.00;;;;;;6178982;28;87959;-65
2022/06/02 17:16:59;;;;;;;2.78;2.58;;;22.70;90.00;;;;;;6177462;28;89785;-65
2022/06/02 17:20:19;;;;;;;3.30;3.00;;;22.70;90.00;;;;;;6176854;28;88416;-65
2022/06/02 17:23:38;;;;;;;3.38;3.08;;;22.60;90.00;;;;;;6178208;28;89089;-65
2022/06/02 17:27:16;;;;;;;3.00;2.70;;;22.70;90.00;;;;;;6176787;28;89113;-66
2022/06/02 17:30:22;;;;;;;2.80;2.60;;;22.80;90.00;;;;;;6177283;28;90092;-66
2022/06/02 17:33:42;;;;;;;2.78;2.58;;;22.70;90.00;;;;;;6180191;28;89373;-66
2022/06/02 17:36:55;;;;;;;2.80;2.60;;;22.70;90.00;;;;;;6177457;28;89299;-65
2022/06/02 17:40:38;;;;;;;2.72;2.53;;;22.70;89.90;;;;;;6179359;28;89161;-66
2022/06/02 17:43:53;;;;;;;2.92;2.60;;;22.70;89.80;;;;;;6127373;28;89097;-65